createdAt,value
2023-03-28T00:00:20.188Z,98403.91
2023-03-28T00:03:36.369Z,98415.42
2023-03-28T00:06:38.189Z,98414.55
2023-03-28T00:09:42.057Z,98417.99
2023-03-28T00:12:43.093Z,98410.09
2023-03-28T00:15:44.538Z,98416.79
2023-03-28T00:18:45.197Z,98409.73
2023-03-28T00:21:53.087Z,98410.95
2023-03-28T00:24:57.119Z,98405.80
2023-03-28T00:27:58.075Z,98398.75
2023-03-28T00:30:58.249Z,98402.01
2023-03-28T00:34:00.127Z,98406.65
2023-03-28T00:37:02.083Z,98403.21
2023-03-28T00:40:03.161Z,98402.52
2023-03-28T00:43:12.423Z,98395.65
2023-03-28T00:46:15.585Z,98402.86
2023-03-28T00:49:20.114Z,98396.52
2023-03-28T00:52:22.187Z,98401.49
2023-03-28T00:55:16.598Z,98388.26
2023-03-28T00:58:21.192Z,98377.27
2023-03-28T01:01:22.183Z,98381.05
2023-03-28T01:04:26.189Z,98374.34
2023-03-28T01:07:30.282Z,98377.61
2023-03-28T01:10:33.882Z,98378.82
2023-03-28T01:13:39.175Z,98371.26
2023-03-28T01:16:39.244Z,98370.40
2023-03-28T01:19:44.781Z,98369.88
2023-03-28T01:23:00.469Z,98365.23
2023-03-28T01:26:02.355Z,98366.61
2023-03-28T01:29:04.467Z,98353.56
2023-03-28T01:32:05.220Z,98349.27
2023-03-28T01:35:39.210Z,98335.02
2023-03-28T01:38:43.224Z,98327.96
2023-03-28T01:41:50.235Z,98326.77
2023-03-28T01:44:46.560Z,98334.31
2023-03-28T01:47:50.218Z,98333.80
2023-03-28T01:50:58.214Z,98332.43
2023-03-28T01:53:59.245Z,98325.90
2023-03-28T01:57:05.417Z,98322.97
2023-03-28T02:00:06.229Z,98321.43
2023-03-28T02:03:31.324Z,98320.56
2023-03-28T02:06:37.257Z,98327.95
2023-03-28T02:09:41.243Z,98315.58
2023-03-28T02:13:24.263Z,98317.13
2023-03-28T02:16:49.386Z,98323.29
2023-03-28T02:20:15.265Z,98322.94
2023-03-28T02:23:43.341Z,98311.95
2023-03-28T02:27:03.321Z,98309.73
2023-03-28T02:30:25.540Z,98319.16
2023-03-28T02:33:47.303Z,98320.86
2023-03-28T02:37:15.590Z,98325.32
2023-03-28T02:40:34.349Z,98336.81
2023-03-28T02:43:47.346Z,98322.89
2023-03-28T02:46:55.392Z,98310.32
2023-03-28T02:50:08.419Z,98303.59
2023-03-28T02:53:33.390Z,98292.06
2023-03-28T02:56:38.912Z,98288.26
2023-03-28T03:00:00.345Z,98289.62
2023-03-28T03:03:01.382Z,98274.69
2023-03-28T03:06:03.631Z,98263.20
2023-03-28T03:09:04.473Z,98266.09
2023-03-28T03:12:05.642Z,98266.10
2023-03-28T03:15:07.430Z,98264.23
2023-03-28T03:18:24.405Z,98271.27
2023-03-28T03:21:24.451Z,98290.48
2023-03-28T03:24:31.396Z,98281.20
2023-03-28T03:27:37.182Z,98285.92
2023-03-28T03:30:58.348Z,98281.39
2023-03-28T03:35:25.672Z,98274.38
2023-03-28T03:38:33.605Z,98271.80
2023-03-28T03:41:47.104Z,98275.23
2023-03-28T03:44:57.718Z,98266.00
2023-03-28T03:48:04.525Z,98251.65
2023-03-28T03:51:09.592Z,98257.32
2023-03-28T03:54:26.766Z,98256.98
2023-03-28T03:57:38.221Z,98239.52
2023-03-28T04:00:40.719Z,98231.12
2023-03-28T04:03:54.702Z,98230.45
2023-03-28T04:07:04.086Z,98230.79
2023-03-28T04:10:11.680Z,98223.23
2023-03-28T04:13:17.251Z,98218.61
2023-03-28T04:16:40.400Z,98220.34
2023-03-28T04:19:48.717Z,98219.48
2023-03-28T04:22:55.349Z,98209.02
2023-03-28T04:26:04.764Z,98201.48
2023-03-28T04:29:18.812Z,98192.58
2023-03-28T04:32:36.823Z,98181.42
2023-03-28T04:35:46.957Z,98176.23
2023-03-28T04:38:51.730Z,98191.45
2023-03-28T04:42:17.718Z,98181.31
2023-03-28T04:45:47.930Z,98194.17
2023-03-28T04:48:48.746Z,98192.98
2023-03-28T04:52:08.582Z,98182.20
2023-03-28T04:55:10.810Z,98189.75
2023-03-28T04:58:20.821Z,98189.97
2023-03-28T05:01:21.847Z,98186.71
2023-03-28T05:04:44.634Z,98184.33
2023-03-28T05:07:46.849Z,98188.25
2023-03-28T05:10:48.824Z,98180.20
2023-03-28T05:13:49.002Z,98185.36
2023-03-28T05:16:57.787Z,98192.57
2023-03-28T05:20:25.834Z,98185.04
2023-03-28T05:23:28.873Z,98174.06
2023-03-28T05:26:34.791Z,98175.61
2023-03-28T05:29:37.940Z,98181.77
2023-03-28T05:32:43.847Z,98177.31
2023-03-28T05:35:46.215Z,98185.50
2023-03-28T05:38:50.886Z,98174.67
2023-03-28T05:41:52.885Z,98169.55
2023-03-28T05:44:54.835Z,98170.42
2023-03-28T05:48:15.328Z,98160.80
2023-03-28T05:51:17.038Z,98152.23
2023-03-28T05:54:17.931Z,98149.31
2023-03-28T05:57:22.341Z,98152.19
2023-03-28T06:00:25.819Z,98147.39
2023-03-28T06:03:27.937Z,98147.21
2023-03-28T06:06:35.107Z,98141.73
2023-03-28T06:09:37.921Z,98135.40
2023-03-28T06:12:39.181Z,98128.54
2023-03-28T06:15:38.927Z,98114.30
2023-03-28T06:18:44.936Z,98098.18
2023-03-28T06:21:45.882Z,98086.33
2023-03-28T06:24:48.192Z,98088.00
2023-03-28T06:27:57.030Z,98077.52
2023-03-28T06:31:03.158Z,98077.84
2023-03-28T06:34:03.898Z,98073.23
2023-03-28T06:37:12.010Z,98058.69
2023-03-28T06:40:20.398Z,98050.64
2023-03-28T06:43:22.091Z,98052.88
2023-03-28T06:46:35.969Z,98065.37
2023-03-28T06:49:38.996Z,98059.41
2023-03-28T06:53:00.003Z,98057.07
2023-03-28T06:56:02.995Z,98051.27
2023-03-28T06:59:05.983Z,98048.90
2023-03-28T07:02:06.013Z,98041.59
2023-03-28T07:05:08.046Z,98040.75
2023-03-28T07:08:07.977Z,98033.02
2023-03-28T07:11:08.007Z,98024.61
2023-03-28T07:14:08.166Z,98022.86
2023-03-28T07:17:08.001Z,98021.95
2023-03-28T07:20:11.081Z,98022.09
2023-03-28T07:23:19.255Z,98026.69
2023-03-28T07:33:36.777Z,98033.31
2023-03-28T07:36:43.595Z,98027.98
2023-03-28T07:39:51.057Z,98034.02
2023-03-28T07:42:53.658Z,98019.26
2023-03-28T07:46:00.131Z,98024.23
2023-03-28T07:49:01.067Z,98024.17
2023-03-28T07:52:02.110Z,98019.13
2023-03-28T07:55:02.200Z,98023.54
2023-03-28T07:58:04.411Z,98027.29
2023-03-28T08:01:07.169Z,98021.09
2023-03-28T08:04:09.185Z,98022.94
2023-03-28T08:07:33.093Z,98027.73
2023-03-28T08:10:34.080Z,98013.66
2023-03-28T08:13:39.239Z,98015.77
2023-03-28T08:16:46.220Z,98002.95
2023-03-28T08:19:46.122Z,98007.08
2023-03-28T08:22:56.245Z,98010.70
2023-03-28T08:26:16.152Z,98005.05
2023-03-28T08:29:24.729Z,98003.04
2023-03-28T08:32:26.316Z,98014.73
2023-03-28T08:35:28.139Z,98004.26
2023-03-28T08:38:31.174Z,98007.70
2023-03-28T08:41:37.132Z,98010.63
2023-03-28T08:44:37.210Z,98011.50
2023-03-28T08:47:40.311Z,98005.69
2023-03-28T08:50:46.146Z,98017.91
2023-03-28T08:53:50.173Z,98016.23
2023-03-28T08:57:01.474Z,98033.78
2023-03-28T09:00:21.212Z,98024.06
2023-03-28T09:03:25.304Z,98028.54
2023-03-28T09:06:43.226Z,98025.64
2023-03-28T09:09:48.182Z,98030.11
2023-03-28T09:12:58.212Z,98026.69
2023-03-28T09:16:38.273Z,98023.09
2023-03-28T09:19:56.441Z,98019.31
2023-03-28T09:23:18.254Z,98014.69
2023-03-28T09:26:47.400Z,98015.04
2023-03-28T09:29:49.239Z,98010.75
2023-03-28T09:32:51.329Z,98002.18
2023-03-28T09:35:53.293Z,97997.89
2023-03-28T09:38:55.295Z,97991.55
2023-03-28T09:42:06.441Z,97994.30
2023-03-28T09:45:22.383Z,97992.77
2023-03-28T09:48:42.384Z,97995.85
2023-03-28T09:51:43.315Z,97998.59
2023-03-28T09:54:46.269Z,97999.27
2023-03-28T09:58:04.462Z,97999.92
2023-03-28T10:01:40.353Z,97996.66
2023-03-28T10:04:53.506Z,97998.71
2023-03-28T10:08:00.351Z,98005.39
2023-03-28T10:11:30.338Z,98005.03
2023-03-28T10:14:45.316Z,97994.40
2023-03-28T10:18:08.468Z,97993.52
2023-03-28T10:21:17.376Z,97986.50
2023-03-28T10:24:31.200Z,97988.89
2023-03-28T10:27:50.560Z,97985.98
2023-03-28T10:30:50.458Z,97983.06
2023-03-28T10:34:15.464Z,97977.07
2023-03-28T10:37:38.432Z,97979.13
2023-03-28T10:41:04.659Z,97973.65
2023-03-28T10:44:30.874Z,97970.22
2023-03-28T10:47:36.563Z,97966.11
2023-03-28T10:50:54.444Z,97967.14
2023-03-28T10:54:07.416Z,97969.21
2023-03-28T10:57:11.442Z,97964.08
2023-03-28T11:00:32.385Z,97959.96
2023-03-28T11:03:34.742Z,97959.95
2023-03-28T11:06:35.402Z,97956.02
2023-03-28T11:09:37.910Z,97952.09
2023-03-28T11:13:43.386Z,97944.56
2023-03-28T11:17:02.549Z,97939.23
2023-03-28T11:20:23.412Z,97940.61
2023-03-28T11:23:43.448Z,97933.76
2023-03-28T11:27:12.434Z,97935.27
2023-03-28T11:30:30.404Z,97928.45
2023-03-28T11:34:18.493Z,97931.01
2023-03-28T11:37:33.101Z,97931.00
2023-03-28T11:40:36.613Z,97929.11
2023-03-28T11:43:50.451Z,97928.76
2023-03-28T11:46:52.481Z,97923.10
2023-03-28T11:49:55.094Z,97921.90
2023-03-28T11:53:31.534Z,97922.07
2023-03-28T11:56:36.534Z,97916.09
2023-03-28T11:59:41.489Z,97916.77
2023-03-28T12:02:44.649Z,97912.16
2023-03-28T12:06:05.261Z,97909.77
2023-03-28T12:09:12.651Z,97910.96
2023-03-28T12:12:22.484Z,97911.84
2023-03-28T12:15:32.466Z,97911.15
2023-03-28T12:18:41.506Z,97913.03
2023-03-28T12:21:57.493Z,97912.53
2023-03-28T12:25:14.647Z,97910.30
2023-03-28T12:28:34.522Z,97910.49
2023-03-28T12:31:41.526Z,97907.06
2023-03-28T12:34:51.620Z,97906.03
2023-03-28T12:38:15.521Z,97903.63
2023-03-28T12:41:25.568Z,97901.91
2023-03-28T12:44:30.533Z,97898.86
2023-03-28T12:47:31.617Z,97893.56
2023-03-28T12:50:44.585Z,97893.73
2023-03-28T12:53:46.588Z,97892.00
2023-03-28T12:56:46.590Z,97891.15
2023-03-28T12:59:53.691Z,97893.02
2023-03-28T13:03:12.582Z,97897.80
2023-03-28T13:06:27.582Z,97899.69
2023-03-28T13:09:31.685Z,97895.93
2023-03-28T13:12:37.861Z,97897.98
2023-03-28T13:15:40.745Z,97901.75
2023-03-28T13:18:44.768Z,97897.98
2023-03-28T13:21:55.754Z,97897.64
2023-03-28T13:24:57.899Z,97903.29
2023-03-28T13:28:07.859Z,97898.82
2023-03-28T13:31:23.785Z,97897.64
2023-03-28T13:34:37.766Z,97901.89
2023-03-28T13:37:39.771Z,97904.13
2023-03-28T13:41:03.207Z,97903.44
2023-03-28T13:44:08.803Z,97905.50
2023-03-28T13:47:08.818Z,97909.25
2023-03-28T13:50:20.061Z,97907.70
2023-03-28T13:53:22.709Z,97908.73
2023-03-28T13:56:28.840Z,97896.23
2023-03-28T13:59:34.710Z,97903.83
2023-03-28T14:02:45.908Z,97913.58
2023-03-28T14:05:49.721Z,97924.58
2023-03-28T14:09:02.854Z,97934.87
2023-03-28T14:12:02.776Z,97934.25
2023-03-28T14:15:04.790Z,97946.95
2023-03-28T14:18:04.873Z,97950.27
2023-03-28T14:21:05.715Z,97974.91
2023-03-28T14:24:09.763Z,97985.75
2023-03-28T14:27:20.805Z,97978.88
2023-03-28T14:30:32.797Z,97979.23
2023-03-28T14:33:38.800Z,97981.56
2023-03-28T14:36:43.847Z,97992.07
2023-03-28T14:39:45.773Z,98001.50
2023-03-28T14:42:45.733Z,98012.46
2023-03-28T14:45:52.111Z,98028.87
2023-03-28T14:49:08.041Z,98035.27
2023-03-28T14:52:10.826Z,98042.13
2023-03-28T14:55:10.761Z,98041.08
2023-03-28T14:58:10.839Z,98043.15
2023-03-28T15:01:11.828Z,98051.72
2023-03-28T15:04:13.813Z,98055.11
2023-03-28T15:07:17.979Z,98064.79
2023-03-28T15:10:32.864Z,98063.17
2023-03-28T15:13:39.864Z,98068.74
2023-03-28T15:16:42.909Z,98069.11
2023-03-28T15:19:53.177Z,98071.11
2023-03-28T15:23:09.825Z,98078.83
2023-03-28T15:26:09.821Z,98082.89
2023-03-28T15:29:09.877Z,98105.13
2023-03-28T15:32:17.980Z,98114.38
2023-03-28T15:35:18.837Z,98117.95
2023-03-28T15:38:19.928Z,98124.86
2023-03-28T15:41:21.947Z,98125.73
2023-03-28T15:44:47.903Z,98136.52
2023-03-28T15:47:51.015Z,98137.29
2023-03-28T15:50:53.989Z,98141.02
2023-03-28T15:53:58.368Z,98144.90
2023-03-28T15:57:00.903Z,98148.94
2023-03-28T16:00:02.045Z,98156.30
2023-03-28T16:03:07.864Z,98157.02
2023-03-28T16:06:26.816Z,98171.54
2023-03-28T16:09:37.883Z,98183.39
2023-03-28T16:12:38.034Z,98187.03
2023-03-28T16:16:01.311Z,98184.38
2023-03-28T16:19:20.897Z,98191.68
2023-03-28T16:22:27.259Z,98184.14
2023-03-28T16:25:26.900Z,98201.70
2023-03-28T16:28:29.916Z,98218.36
2023-03-28T16:31:32.947Z,98237.25
2023-03-28T16:34:32.944Z,98244.80
2023-03-28T16:37:32.934Z,98253.23
2023-03-28T16:40:33.016Z,98253.47
2023-03-28T16:43:32.986Z,98256.88
2023-03-28T16:46:32.965Z,98263.86
2023-03-28T16:49:39.059Z,98275.27
2023-03-28T16:52:39.102Z,98275.80
2023-03-28T16:55:45.011Z,98270.39
2023-03-28T16:58:47.325Z,98275.10
2023-03-28T17:01:54.110Z,98285.70
2023-03-28T17:04:57.051Z,98289.23
2023-03-28T17:07:58.017Z,98301.40
2023-03-28T17:10:58.958Z,98299.48
2023-03-28T17:14:00.103Z,98302.67
2023-03-28T17:17:00.299Z,98307.51
2023-03-28T17:20:01.344Z,98316.98
2023-03-28T17:23:03.253Z,98319.41
2023-03-28T17:26:05.994Z,98325.42
2023-03-28T17:29:08.211Z,98337.05
2023-03-28T17:32:09.056Z,98340.73
2023-03-28T17:35:13.237Z,98348.88
2023-03-28T17:38:18.194Z,98342.42
2023-03-28T17:41:18.149Z,98355.98
2023-03-28T17:44:19.996Z,98349.67
2023-03-28T17:47:21.101Z,98372.27
2023-03-28T17:50:24.449Z,98364.30
2023-03-28T17:53:24.153Z,98378.20
2023-03-28T17:56:25.103Z,98378.79
2023-03-28T17:59:26.082Z,98392.89
2023-03-28T18:02:26.646Z,98395.10
2023-03-28T18:05:36.167Z,98385.90
2023-03-28T18:08:36.129Z,98380.42
2023-03-28T18:11:37.116Z,98385.71
2023-03-28T18:14:39.077Z,98393.42
2023-03-28T18:17:43.098Z,98391.89
2023-03-28T18:20:43.170Z,98388.67
2023-03-28T18:23:43.184Z,98401.15
2023-03-28T18:26:44.141Z,98397.69
2023-03-28T18:29:45.229Z,98397.94
2023-03-28T18:32:45.212Z,98395.59
2023-03-28T18:35:46.316Z,98408.39
2023-03-28T18:38:52.191Z,98413.44
2023-03-28T18:41:54.170Z,98410.25
2023-03-28T18:44:55.197Z,98413.95
2023-03-28T18:47:58.291Z,98418.18
2023-03-28T18:50:59.176Z,98424.22
2023-03-28T18:54:06.150Z,98433.05
2023-03-28T18:57:06.217Z,98437.90
2023-03-28T19:00:06.243Z,98443.80
2023-03-28T19:03:08.249Z,98445.17
2023-03-28T19:06:11.262Z,98462.67
2023-03-28T19:09:05.628Z,98461.64
2023-03-28T19:12:07.218Z,98463.67
2023-03-28T19:15:09.194Z,98487.64
2023-03-28T19:18:11.268Z,98486.95
2023-03-28T19:21:15.230Z,98483.52
2023-03-28T19:24:15.232Z,98493.10
2023-03-28T19:27:17.210Z,98479.80
2023-03-28T19:30:17.253Z,98477.82
2023-03-28T19:33:18.250Z,98484.80
2023-03-28T19:36:18.251Z,98473.32
2023-03-28T19:39:18.234Z,98478.19
2023-03-28T19:42:19.234Z,98476.30
2023-03-28T19:45:20.240Z,98476.16
2023-03-28T19:48:20.217Z,98489.32
2023-03-28T19:51:21.285Z,98504.03
2023-03-28T19:54:21.253Z,98491.16
2023-03-28T19:57:21.361Z,98499.93
2023-03-28T20:00:21.496Z,98515.06
2023-03-28T20:03:22.307Z,98512.05
2023-03-28T20:06:25.272Z,98515.38
2023-03-28T20:09:25.295Z,98521.58
2023-03-28T20:12:25.288Z,98525.79
2023-03-28T20:15:25.297Z,98547.24
2023-03-28T20:18:29.368Z,98540.05
2023-03-28T20:21:30.319Z,98554.63
2023-03-28T20:24:30.643Z,98552.97
2023-03-28T20:27:24.447Z,98564.85
2023-03-28T20:30:17.325Z,98557.83
2023-03-28T20:33:18.337Z,98563.37
2023-03-28T20:36:18.341Z,98567.77
2023-03-28T20:39:19.302Z,98559.80
2023-03-28T20:42:19.397Z,98578.26
2023-03-28T20:45:28.311Z,98586.21
2023-03-28T20:48:32.315Z,98575.06
2023-03-28T20:51:32.337Z,98580.73
2023-03-28T20:54:34.336Z,98597.97
2023-03-28T20:57:56.333Z,98606.21
2023-03-28T21:01:02.982Z,98605.81
2023-03-28T21:04:05.508Z,98608.09
2023-03-28T21:07:13.592Z,98627.63
2023-03-28T21:10:13.384Z,98627.95
2023-03-28T21:13:13.428Z,98632.89
2023-03-28T21:16:14.785Z,98642.16
2023-03-28T21:19:20.372Z,98631.30
2023-03-28T21:22:21.392Z,98642.46
2023-03-28T21:25:22.474Z,98655.98
2023-03-28T21:28:26.445Z,98652.39
2023-03-28T21:31:27.583Z,98662.17
2023-03-28T21:34:37.399Z,98658.02
2023-03-28T21:37:40.547Z,98657.59
2023-03-28T21:40:40.450Z,98663.48
2023-03-28T21:43:42.555Z,98675.73
2023-03-28T21:46:42.455Z,98673.48
2023-03-28T21:49:43.480Z,98660.10
2023-03-28T21:52:43.423Z,98680.27
2023-03-28T21:55:44.678Z,98682.15
2023-03-28T21:58:46.619Z,98682.06
2023-03-28T22:01:47.549Z,98699.67
2023-03-28T22:04:48.692Z,98701.67
2023-03-28T22:07:50.486Z,98698.09
2023-03-28T22:10:51.491Z,98695.84
2023-03-28T22:13:56.574Z,98703.23
2023-03-28T22:16:57.595Z,98709.34
2023-03-28T22:19:59.530Z,98709.52
2023-03-28T22:22:59.551Z,98719.84
2023-03-28T22:26:02.556Z,98722.90
2023-03-28T22:29:03.520Z,98720.58
2023-03-28T22:32:03.560Z,98734.20
2023-03-28T22:35:04.517Z,98748.13
2023-03-28T22:38:04.595Z,98756.68
2023-03-28T22:41:04.701Z,98750.97
2023-03-28T22:44:04.662Z,98750.59
2023-03-28T22:47:08.552Z,98753.80
2023-03-28T22:50:10.529Z,98767.31
2023-03-28T22:53:10.676Z,98771.18
2023-03-28T22:56:10.577Z,98764.98
2023-03-28T22:59:12.615Z,98764.77
2023-03-28T23:02:12.613Z,98757.38
2023-03-28T23:05:13.738Z,98751.65
2023-03-28T23:08:14.624Z,98756.27
2023-03-28T23:11:15.582Z,98758.23
2023-03-28T23:14:16.618Z,98766.89
2023-03-28T23:17:16.586Z,98766.03
2023-03-28T23:20:18.597Z,98758.93
2023-03-28T23:23:20.618Z,98766.86
2023-03-28T23:26:21.614Z,98774.89
2023-03-28T23:29:22.592Z,98770.41
2023-03-28T23:32:23.608Z,98776.19
2023-03-28T23:35:23.642Z,98787.27
2023-03-28T23:38:23.696Z,98779.42
2023-03-28T23:41:23.603Z,98785.27
2023-03-28T23:44:25.655Z,98774.88
2023-03-28T23:47:26.682Z,98797.16
2023-03-28T23:50:26.676Z,98792.78
2023-03-28T23:53:27.714Z,98800.41
2023-03-28T23:56:28.679Z,98810.43
2023-03-28T23:59:29.659Z,98813.65
